Terminal Aerodrome Forecast
Issued by NWS Wichita, KS

Home | Current Version | Previous Version | Graphics & Text | Print | Product List | Glossary On
Versions: 1 2 3 4 5 6 7 8 9 10 11 12 13 14 15 16 17 18 19 20 21 22 23 24 25
000
FTUS43 KICT 150418 AAB
TAFICT
TAF AMD
KICT 150418Z 1504/1524 VRB03KT P6SM -FZDZ SCT010 OVC020
      TEMPO 1504/1508 4SM -FZRA OVC010
     FM150800 05004KT 5SM -FZRA BR OVC008
     FM151200 04005KT 4SM -FZDZ BR OVC006
     FM151800 06004KT 6SM -DZ BR OVC008=

USA.gov is the U.S. government's official web portal to all federal, state and local government web resources and services.